Time;durP1;ratioP1;P1;durP2;ratioP2;P2;SDS_P1;SDS_P2;PMS_P1;PMS_P2;Temp;Humidity;BMP_temperature;BMP_pressure;BME280_temperature;BME280_humidity;BME280_pressure;Samples;Min_cycle;Max_cycle;Signal;HPM_P1;HPM_P2
2024/01/02 00:00:38;;;;;;;3.63;0.90;;;6.70;99.90;;;;;;5034892;28;20112;-73
2024/01/02 00:03:04;;;;;;;2.50;0.50;;;6.70;99.90;;;;;;5035048;28;20388;-74
2024/01/02 00:05:29;;;;;;;2.35;0.60;;;6.60;99.90;;;;;;5035124;28;20022;-74
2024/01/02 00:07:55;;;;;;;3.35;0.82;;;6.70;99.90;;;;;;5035514;28;20484;-74
2024/01/02 00:10:20;;;;;;;2.40;0.68;;;6.60;99.90;;;;;;5035240;28;20033;-73
2024/01/02 00:12:46;;;;;;;3.55;0.85;;;6.60;99.90;;;;;;5034956;28;20025;-74
2024/01/02 00:15:12;;;;;;;3.80;1.30;;;6.60;99.90;;;;;;5018538;28;20032;-73
2024/01/02 00:17:37;;;;;;;4.05;0.80;;;6.60;99.90;;;;;;5034796;28;20302;-73
2024/01/02 00:20:04;;;;;;;1.92;0.70;;;6.70;99.90;;;;;;5034915;28;20028;-74
2024/01/02 00:22:30;;;;;;;2.95;0.93;;;6.70;99.90;;;;;;5038297;28;20066;-74
2024/01/02 00:24:56;;;;;;;4.15;1.15;;;6.70;99.90;;;;;;5038777;28;20025;-73
2024/01/02 00:27:21;;;;;;;2.28;1.00;;;6.70;99.90;;;;;;5034962;28;20492;-74
2024/01/02 00:29:47;;;;;;;3.03;1.10;;;6.70;99.90;;;;;;5035248;28;20040;-75
2024/01/02 00:32:12;;;;;;;3.42;1.02;;;6.70;99.90;;;;;;5034481;28;20400;-74
2024/01/02 00:34:38;;;;;;;3.50;0.80;;;6.70;99.90;;;;;;5037569;28;20049;-74
2024/01/02 00:37:04;;;;;;;3.45;0.93;;;6.70;99.90;;;;;;5034402;28;20029;-74
2024/01/02 00:39:29;;;;;;;4.05;1.10;;;6.70;99.90;;;;;;5034539;28;20037;-74
2024/01/02 00:41:55;;;;;;;4.10;0.68;;;6.70;99.90;;;;;;5026103;28;20025;-74
2024/01/02 00:44:20;;;;;;;4.10;0.73;;;6.70;99.90;;;;;;5017660;28;20032;-74
2024/01/02 00:46:46;;;;;;;4.05;1.17;;;6.70;99.90;;;;;;5034033;28;20083;-73
2024/01/02 00:49:11;;;;;;;4.93;0.90;;;6.70;99.90;;;;;;5033916;28;20435;-74
2024/01/02 00:51:37;;;;;;;2.10;0.75;;;6.70;99.90;;;;;;5033132;28;20030;-73
2024/01/02 00:54:03;;;;;;;2.15;0.70;;;6.70;99.90;;;;;;5033670;28;20025;-73
2024/01/02 00:56:28;;;;;;;2.47;0.90;;;6.70;99.90;;;;;;5032541;28;20030;-73
2024/01/02 00:58:54;;;;;;;4.55;0.90;;;6.70;99.90;;;;;;5032445;28;20028;-73
2024/01/02 01:01:20;;;;;;;1.42;0.55;;;6.70;99.90;;;;;;5032318;28;20025;-75
2024/01/02 01:03:46;;;;;;;3.92;0.70;;;6.70;99.90;;;;;;5032343;28;20029;-74
2024/01/02 01:06:11;;;;;;;1.35;0.60;;;6.70;99.90;;;;;;5032104;28;20036;-74
2024/01/02 01:08:37;;;;;;;4.00;0.90;;;6.70;99.90;;;;;;5031996;28;20040;-75
2024/01/02 01:11:03;;;;;;;2.72;0.80;;;6.70;99.90;;;;;;5031967;28;20044;-74
2024/01/02 01:13:28;;;;;;;1.48;0.63;;;6.70;99.90;;;;;;5033932;28;20051;-74
2024/01/02 01:15:54;;;;;;;1.23;0.43;;;6.70;99.90;;;;;;5032228;28;20031;-75
2024/01/02 01:18:19;;;;;;;1.63;0.40;;;6.70;99.90;;;;;;5031612;28;20022;-74
2024/01/02 01:20:45;;;;;;;4.32;0.57;;;6.80;99.90;;;;;;5031863;28;20025;-75
2024/01/02 01:23:11;;;;;;;0.98;0.50;;;6.80;99.90;;;;;;5032009;28;20029;-75
2024/01/02 01:25:36;;;;;;;2.15;0.60;;;6.80;99.90;;;;;;5031950;28;20494;-75
2024/01/02 01:28:03;;;;;;;2.85;0.60;;;6.80;99.90;;;;;;5032095;28;20112;-75
2024/01/02 01:30:29;;;;;;;1.90;0.70;;;6.80;99.90;;;;;;5031710;28;20017;-75
2024/01/02 01:32:55;;;;;;;1.38;0.77;;;6.80;99.90;;;;;;5031638;28;20095;-73
2024/01/02 01:35:20;;;;;;;1.80;0.88;;;6.80;99.90;;;;;;5031703;28;20396;-75
2024/01/02 01:37:46;;;;;;;2.75;0.73;;;6.80;99.90;;;;;;5031488;28;20095;-75
2024/01/02 01:40:12;;;;;;;1.95;0.80;;;6.80;99.90;;;;;;5031217;28;20148;-75
2024/01/02 01:42:37;;;;;;;2.25;0.70;;;6.80;99.90;;;;;;5031497;28;20013;-76
2024/01/02 01:45:03;;;;;;;2.47;0.90;;;6.70;99.90;;;;;;5047033;28;20037;-75
2024/01/02 01:47:29;;;;;;;3.13;0.70;;;6.70;99.90;;;;;;5031418;28;20041;-75
2024/01/02 01:49:54;;;;;;;1.55;0.50;;;6.70;99.90;;;;;;5031368;28;20028;-74
2024/01/02 01:52:20;;;;;;;1.30;0.50;;;6.70;99.90;;;;;;5028021;28;20096;-75
2024/01/02 01:54:47;;;;;;;1.05;0.50;;;6.70;99.90;;;;;;5031297;28;20033;-75
2024/01/02 01:57:13;;;;;;;3.70;0.80;;;6.80;99.90;;;;;;5027648;28;20079;-76
2024/01/02 01:59:41;;;;;;;2.65;0.50;;;6.80;99.90;;;;;;5031497;28;20025;-75
2024/01/02 02:02:07;;;;;;;1.42;0.60;;;6.80;99.90;;;;;;5032934;28;20492;-75
2024/01/02 02:04:36;;;;;;;2.72;1.00;;;6.80;99.90;;;;;;5035554;28;20064;-75
2024/01/02 02:07:02;;;;;;;5.53;2.05;;;6.80;99.90;;;;;;5035693;28;20017;-74
2024/01/02 02:09:28;;;;;;;6.38;1.55;;;6.70;99.90;;;;;;5027406;28;20033;-75
2024/01/02 02:11:54;;;;;;;2.25;0.80;;;6.70;99.90;;;;;;5035700;28;20021;-74
2024/01/02 02:14:20;;;;;;;4.22;1.20;;;6.70;99.90;;;;;;5035186;28;20049;-74
2024/01/02 02:16:45;;;;;;;1.00;0.50;;;6.70;99.90;;;;;;5035689;28;20025;-75
2024/01/02 02:19:11;;;;;;;2.47;1.00;;;6.80;99.90;;;;;;5035228;28;20075;-75
2024/01/02 02:21:37;;;;;;;3.63;0.60;;;6.70;99.90;;;;;;5035579;28;20036;-75
2024/01/02 02:24:03;;;;;;;1.10;0.50;;;6.70;99.90;;;;;;5035436;28;20025;-74
2024/01/02 02:26:28;;;;;;;5.05;0.50;;;6.70;99.90;;;;;;5031844;28;20080;-74
2024/01/02 02:28:54;;;;;;;4.00;0.80;;;6.70;99.90;;;;;;5030627;28;20500;-75
2024/01/02 02:31:19;;;;;;;3.42;0.60;;;6.70;99.90;;;;;;5035171;28;20029;-75
2024/01/02 02:33:45;;;;;;;2.63;0.90;;;6.70;99.90;;;;;;5035183;28;20025;-75
2024/01/02 02:36:11;;;;;;;1.52;0.50;;;6.70;99.90;;;;;;5029939;28;20029;-75
2024/01/02 02:38:36;;;;;;;4.30;0.70;;;6.70;99.90;;;;;;5050532;28;20025;-75
2024/01/02 02:41:02;;;;;;;1.20;0.68;;;6.70;99.90;;;;;;5035158;28;20022;-74
2024/01/02 02:43:28;;;;;;;2.78;1.05;;;6.70;99.90;;;;;;5034854;28;20021;-75
2024/01/02 02:45:53;;;;;;;6.18;1.25;;;6.70;99.90;;;;;;5022990;28;20044;-75
2024/01/02 02:48:19;;;;;;;3.35;0.88;;;6.70;99.90;;;;;;5024648;28;20075;-75
2024/01/02 02:50:44;;;;;;;1.92;0.60;;;6.70;99.90;;;;;;5040127;28;20033;-73
2024/01/02 02:53:10;;;;;;;0.98;0.50;;;6.70;99.90;;;;;;5031510;28;20045;-75
2024/01/02 02:55:35;;;;;;;4.47;0.98;;;6.70;99.90;;;;;;5029764;28;20041;-75
2024/01/02 02:58:02;;;;;;;2.33;0.60;;;6.70;99.90;;;;;;5026278;28;20022;-74
2024/01/02 03:00:28;;;;;;;2.08;0.73;;;6.70;99.90;;;;;;5018073;28;20022;-75
2024/01/02 03:02:56;;;;;;;5.15;0.73;;;6.70;99.90;;;;;;5034533;28;20056;-75
2024/01/02 03:05:22;;;;;;;1.35;0.50;;;6.70;99.90;;;;;;5034378;28;20032;-75
2024/01/02 03:07:47;;;;;;;3.33;0.60;;;6.70;99.90;;;;;;5049996;28;20026;-75
2024/01/02 03:10:14;;;;;;;3.47;1.23;;;6.70;99.90;;;;;;5034542;28;20021;-74
2024/01/02 03:12:39;;;;;;;2.67;0.70;;;6.70;99.90;;;;;;5034118;28;20021;-73
2024/01/02 03:15:06;;;;;;;1.73;0.77;;;6.70;99.90;;;;;;5033407;28;20071;-74
2024/01/02 03:17:31;;;;;;;1.88;0.52;;;6.70;99.90;;;;;;5022892;28;20083;-73
2024/01/02 03:19:57;;;;;;;1.88;0.80;;;6.70;99.90;;;;;;5034435;28;20026;-75
2024/01/02 03:22:22;;;;;;;3.72;0.85;;;6.70;99.90;;;;;;5034288;28;20029;-75
2024/01/02 03:24:48;;;;;;;1.75;0.68;;;6.70;99.90;;;;;;5034382;28;20018;-74
2024/01/02 03:27:14;;;;;;;2.58;0.75;;;6.70;99.90;;;;;;5033932;28;20034;-74
2024/01/02 03:29:39;;;;;;;0.93;0.40;;;6.70;99.90;;;;;;5034865;28;20025;-75
2024/01/02 03:32:05;;;;;;;2.20;0.70;;;6.60;99.90;;;;;;5029065;28;20021;-75
2024/01/02 03:34:30;;;;;;;2.28;0.77;;;6.60;99.90;;;;;;5029112;28;20026;-74
2024/01/02 03:36:56;;;;;;;0.80;0.60;;;6.60;99.90;;;;;;5025857;28;20139;-75
2024/01/02 03:39:22;;;;;;;3.92;0.73;;;6.60;99.90;;;;;;5028624;28;20026;-75
2024/01/02 03:41:47;;;;;;;1.38;0.60;;;6.60;99.90;;;;;;5033795;28;20080;-74
2024/01/02 03:44:13;;;;;;;2.90;0.60;;;6.60;99.90;;;;;;5031847;28;20116;-74
2024/01/02 03:46:38;;;;;;;2.25;0.60;;;6.60;99.90;;;;;;5033953;28;20069;-73
2024/01/02 03:49:04;;;;;;;1.23;0.70;;;6.60;99.90;;;;;;5033694;28;20025;-74
2024/01/02 03:51:29;;;;;;;1.55;0.40;;;6.60;99.90;;;;;;5033842;28;20433;-74
2024/01/02 03:53:55;;;;;;;2.45;0.80;;;6.60;99.90;;;;;;5033576;28;20022;-74
2024/01/02 03:56:21;;;;;;;3.22;0.75;;;6.60;99.90;;;;;;5033286;28;20025;-72
2024/01/02 03:58:46;;;;;;;0.70;0.32;;;6.60;99.90;;;;;;5032723;28;20029;-75
2024/01/02 04:01:12;;;;;;;1.70;0.50;;;6.60;99.90;;;;;;5046455;28;20021;-74
2024/01/02 04:03:37;;;;;;;3.25;0.60;;;6.60;99.90;;;;;;5034460;28;20105;-75
2024/01/02 04:06:03;;;;;;;3.22;0.93;;;6.60;99.90;;;;;;5034498;28;20021;-74
2024/01/02 04:08:29;;;;;;;2.33;0.57;;;6.60;99.90;;;;;;5033998;28;20041;-75
2024/01/02 04:10:54;;;;;;;1.17;0.50;;;6.60;99.90;;;;;;5022745;28;20033;-75
2024/01/02 04:13:20;;;;;;;2.28;0.40;;;6.60;99.90;;;;;;5031999;28;20031;-75
2024/01/02 04:15:45;;;;;;;0.68;0.35;;;6.60;99.90;;;;;;5030990;28;20045;-74
2024/01/02 04:18:11;;;;;;;1.50;0.30;;;6.60;99.90;;;;;;5033567;28;20029;-74
2024/01/02 04:20:37;;;;;;;1.15;0.30;;;6.70;99.90;;;;;;5033502;28;20025;-75
2024/01/02 04:23:02;;;;;;;0.68;0.30;;;6.60;99.90;;;;;;5033377;28;20120;-76
2024/01/02 04:25:28;;;;;;;0.28;0.20;;;6.70;99.90;;;;;;5033199;28;20025;-75
2024/01/02 04:27:55;;;;;;;0.75;0.28;;;6.70;99.90;;;;;;5021756;28;20388;-75
2024/01/02 04:30:22;;;;;;;1.48;0.30;;;6.70;99.90;;;;;;5033243;28;20030;-76
2024/01/02 04:32:48;;;;;;;0.93;0.50;;;6.70;99.90;;;;;;5033659;28;20704;-76
2024/01/02 04:35:14;;;;;;;0.77;0.40;;;6.70;99.90;;;;;;5029887;28;20092;-76
2024/01/02 04:37:39;;;;;;;1.88;0.60;;;6.70;99.90;;;;;;5041297;28;20021;-76
2024/01/02 04:40:06;;;;;;;1.20;0.40;;;6.70;99.90;;;;;;5031909;28;20068;-74
2024/01/02 04:42:35;;;;;;;1.48;0.40;;;6.70;99.90;;;;;;5024331;28;20079;-75
2024/01/02 04:45:02;;;;;;;1.35;0.43;;;6.70;99.90;;;;;;5027173;28;20075;-73
2024/01/02 04:47:28;;;;;;;0.82;0.45;;;6.70;99.90;;;;;;5023883;28;20119;-75
2024/01/02 04:49:53;;;;;;;0.80;0.40;;;6.70;99.90;;;;;;5031242;28;20624;-75
2024/01/02 04:52:19;;;;;;;2.85;0.50;;;6.70;99.90;;;;;;5032383;28;20033;-74
2024/01/02 04:54:45;;;;;;;2.65;0.32;;;6.70;99.90;;;;;;5026817;28;20464;-74
2024/01/02 04:57:11;;;;;;;0.98;0.60;;;6.60;99.90;;;;;;5027100;28;20053;-74
2024/01/02 04:59:37;;;;;;;2.05;0.50;;;6.60;99.90;;;;;;5028870;28;20495;-75
2024/01/02 05:02:02;;;;;;;0.75;0.40;;;6.60;99.90;;;;;;5029648;28;20392;-75
2024/01/02 05:04:28;;;;;;;1.92;0.55;;;6.60;99.90;;;;;;5032096;28;20468;-74
2024/01/02 05:06:54;;;;;;;0.75;0.40;;;6.60;99.90;;;;;;5042131;28;20026;-75
2024/01/02 05:09:20;;;;;;;1.27;0.47;;;6.60;99.90;;;;;;5030101;28;20032;-75
2024/01/02 05:11:48;;;;;;;0.68;0.50;;;6.60;99.90;;;;;;5024148;28;20164;-74
2024/01/02 05:14:14;;;;;;;0.50;0.30;;;6.60;99.90;;;;;;5028398;28;20033;-74
2024/01/02 05:16:40;;;;;;;1.92;0.50;;;6.50;99.90;;;;;;5031902;28;20021;-75
2024/01/02 05:19:06;;;;;;;0.63;0.35;;;6.50;99.90;;;;;;5030889;28;20487;-75
2024/01/02 05:21:32;;;;;;;1.52;0.70;;;6.50;99.90;;;;;;5023252;28;20104;-74
2024/01/02 05:23:58;;;;;;;1.42;0.40;;;6.50;99.90;;;;;;5033101;28;20424;-75
2024/01/02 05:26:23;;;;;;;1.08;0.60;;;6.50;99.90;;;;;;5031987;28;20118;-75
2024/01/02 05:28:49;;;;;;;2.15;0.40;;;6.50;99.90;;;;;;5026388;28;20037;-74
2024/01/02 05:31:14;;;;;;;1.15;0.32;;;6.50;99.90;;;;;;5028609;28;20025;-74
2024/01/02 05:33:40;;;;;;;0.65;0.47;;;6.50;99.90;;;;;;5025300;28;20053;-75
2024/01/02 05:36:06;;;;;;;0.95;0.40;;;6.50;99.90;;;;;;5030040;28;20104;-75
2024/01/02 05:38:31;;;;;;;1.05;0.47;;;6.50;99.90;;;;;;5028091;28;20017;-75
2024/01/02 05:40:57;;;;;;;2.25;0.50;;;6.50;99.90;;;;;;5031828;28;20083;-76
2024/01/02 05:43:22;;;;;;;1.30;0.70;;;6.50;99.90;;;;;;5028779;28;20021;-75
2024/01/02 05:45:48;;;;;;;0.85;0.40;;;6.60;99.90;;;;;;5022648;28;20083;-75
2024/01/02 05:48:13;;;;;;;0.70;0.30;;;6.60;99.90;;;;;;5031553;28;20028;-75
2024/01/02 05:50:39;;;;;;;1.23;0.40;;;6.50;99.90;;;;;;5027287;28;20042;-75
2024/01/02 05:53:09;;;;;;;1.17;0.45;;;6.60;99.90;;;;;;5027667;28;20477;-75
2024/01/02 05:55:35;;;;;;;0.80;0.40;;;6.50;99.90;;;;;;5025303;28;20492;-75
2024/01/02 05:58:00;;;;;;;0.70;0.40;;;6.60;99.90;;;;;;5021691;28;20021;-75
2024/01/02 06:00:26;;;;;;;1.08;0.40;;;6.60;99.90;;;;;;5022449;28;20029;-75
2024/01/02 06:02:53;;;;;;;0.93;0.40;;;6.60;99.90;;;;;;5028799;28;20026;-75
2024/01/02 06:05:18;;;;;;;0.63;0.30;;;6.60;99.90;;;;;;5027954;28;20045;-75
2024/01/02 06:07:44;;;;;;;0.52;0.20;;;6.70;99.90;;;;;;5023891;28;20103;-75
2024/01/02 06:10:09;;;;;;;0.70;0.40;;;6.70;99.90;;;;;;5026299;28;20033;-75
2024/01/02 06:12:35;;;;;;;2.38;0.65;;;6.70;99.90;;;;;;5022778;28;20029;-75
2024/01/02 06:15:02;;;;;;;1.85;0.55;;;6.70;99.90;;;;;;5022523;28;20076;-75
2024/01/02 06:17:28;;;;;;;0.70;0.20;;;6.70;99.90;;;;;;5025379;28;20022;-74
2024/01/02 06:19:53;;;;;;;0.40;0.25;;;6.80;99.90;;;;;;5030408;28;20373;-75
2024/01/02 06:22:19;;;;;;;0.60;0.30;;;6.80;99.90;;;;;;5021180;28;20037;-74
2024/01/02 06:24:45;;;;;;;0.20;0.20;;;6.80;99.90;;;;;;5022996;28;20031;-75
2024/01/02 06:27:10;;;;;;;0.60;0.50;;;6.90;99.90;;;;;;5024046;28;20460;-74
2024/01/02 06:29:36;;;;;;;0.43;0.20;;;7.00;99.90;;;;;;5025086;28;20459;-75
2024/01/02 06:32:03;;;;;;;1.35;0.30;;;7.00;99.90;;;;;;5041067;28;20045;-75
2024/01/02 06:34:29;;;;;;;0.28;0.20;;;7.00;99.90;;;;;;5027270;28;20404;-76
2024/01/02 06:36:55;;;;;;;0.75;0.20;;;7.10;99.90;;;;;;5026840;28;20021;-74
2024/01/02 06:39:20;;;;;;;0.63;0.30;;;7.10;99.90;;;;;;5020447;28;20029;-74
2024/01/02 06:41:46;;;;;;;0.95;0.38;;;7.10;99.90;;;;;;5024338;28;20029;-75
2024/01/02 06:44:12;;;;;;;0.30;0.20;;;7.20;99.90;;;;;;5023258;28;20025;-75
2024/01/02 06:46:38;;;;;;;0.52;0.20;;;7.30;99.90;;;;;;5040629;28;20030;-75
2024/01/02 06:49:04;;;;;;;0.40;0.20;;;7.30;99.90;;;;;;5030697;28;20040;-75
2024/01/02 06:51:30;;;;;;;0.10;0.10;;;7.30;99.90;;;;;;5027503;28;20033;-74
2024/01/02 06:53:55;;;;;;;0.50;0.20;;;7.30;99.90;;;;;;5027816;28;20083;-75
2024/01/02 06:56:21;;;;;;;0.50;0.20;;;7.40;99.90;;;;;;5025299;28;20026;-74
2024/01/02 06:58:46;;;;;;;2.13;0.20;;;7.40;99.90;;;;;;5027008;28;20037;-75
2024/01/02 07:01:17;;;;;;;1.65;0.20;;;7.40;99.90;;;;;;5029176;28;20127;-75
2024/01/02 07:03:43;;;;;;;0.55;0.28;;;7.50;99.90;;;;;;5026730;28;20022;-75
2024/01/02 07:06:08;;;;;;;0.20;0.20;;;7.50;99.90;;;;;;5027961;28;20140;-74
2024/01/02 07:08:34;;;;;;;0.47;0.13;;;7.50;99.90;;;;;;5026159;28;20040;-73
2024/01/02 07:10:59;;;;;;;0.20;0.17;;;7.60;99.90;;;;;;5030412;28;20022;-76
2024/01/02 07:13:25;;;;;;;0.10;0.10;;;7.70;99.90;;;;;;5024050;28;20036;-75
2024/01/02 07:15:51;;;;;;;1.35;0.40;;;7.70;99.90;;;;;;5026867;28;20033;-75
2024/01/02 07:18:16;;;;;;;0.10;0.10;;;7.80;99.90;;;;;;5021638;28;20022;-74
2024/01/02 07:20:42;;;;;;;0.10;0.10;;;7.80;99.90;;;;;;5030003;28;20100;-75
2024/01/02 07:23:07;;;;;;;0.50;0.30;;;7.80;99.90;;;;;;5029340;28;20030;-74
2024/01/02 07:25:33;;;;;;;0.43;0.10;;;7.80;99.90;;;;;;5027271;28;20091;-74
2024/01/02 07:27:59;;;;;;;0.28;0.20;;;7.80;99.90;;;;;;5025028;28;20053;-74
2024/01/02 07:30:24;;;;;;;0.30;0.10;;;7.90;99.90;;;;;;5030040;28;20033;-75
2024/01/02 07:32:50;;;;;;;0.10;0.10;;;7.90;99.90;;;;;;5025994;28;20527;-76
2024/01/02 07:35:15;;;;;;;0.10;0.00;;;7.90;99.90;;;;;;5032655;28;20060;-75
2024/01/02 07:37:41;;;;;;;1.02;0.30;;;7.90;99.90;;;;;;5029655;28;20384;-75
2024/01/02 07:40:07;;;;;;;0.35;0.10;;;7.90;99.90;;;;;;5039284;28;20025;-73
2024/01/02 07:42:33;;;;;;;0.10;0.10;;;8.00;99.90;;;;;;5018073;28;20121;-74
2024/01/02 07:44:59;;;;;;;0.35;0.13;;;8.00;99.90;;;;;;5022230;28;20121;-75
2024/01/02 07:47:25;;;;;;;0.10;0.10;;;8.00;99.90;;;;;;5023809;28;20057;-75
2024/01/02 07:49:51;;;;;;;0.47;0.20;;;8.00;99.90;;;;;;5018954;28;20464;-74
2024/01/02 07:52:17;;;;;;;0.30;0.10;;;8.00;99.90;;;;;;5018929;28;20036;-74
2024/01/02 07:54:43;;;;;;;0.50;0.20;;;8.10;99.90;;;;;;5024611;28;20068;-75
2024/01/02 07:57:09;;;;;;;0.63;0.30;;;8.10;99.90;;;;;;5037819;28;20049;-74
2024/01/02 07:59:34;;;;;;;1.20;0.40;;;8.10;99.90;;;;;;5029087;28;20033;-74
2024/01/02 08:02:00;;;;;;;0.85;0.50;;;8.10;99.90;;;;;;5027147;28;20026;-74
2024/01/02 08:04:25;;;;;;;2.10;0.90;;;8.10;99.90;;;;;;5025076;28;20109;-74
2024/01/02 08:06:51;;;;;;;4.78;0.30;;;8.10;99.90;;;;;;5023545;28;20527;-71
2024/01/02 08:09:17;;;;;;;0.88;0.30;;;8.20;99.90;;;;;;5022168;28;20025;-70
2024/01/02 08:11:43;;;;;;;0.20;0.10;;;8.20;99.90;;;;;;5021521;28;20507;-70
2024/01/02 08:14:09;;;;;;;0.90;0.57;;;8.30;99.90;;;;;;5027601;28;20088;-70
2024/01/02 08:16:34;;;;;;;1.15;0.30;;;8.40;99.90;;;;;;5024661;28;20040;-70
2024/01/02 08:19:00;;;;;;;0.20;0.20;;;8.40;99.90;;;;;;5027570;28;20101;-71
2024/01/02 08:21:26;;;;;;;0.43;0.10;;;8.40;99.90;;;;;;5024199;28;20486;-75
2024/01/02 08:23:52;;;;;;;0.30;0.15;;;8.40;99.90;;;;;;5026615;28;20388;-75
2024/01/02 08:26:18;;;;;;;0.30;0.20;;;8.40;99.90;;;;;;5033249;28;20021;-76
2024/01/02 08:28:44;;;;;;;0.38;0.20;;;8.40;99.90;;;;;;5029589;28;20500;-75
2024/01/02 08:31:09;;;;;;;0.17;0.10;;;8.30;99.90;;;;;;5028282;28;20037;-74
2024/01/02 08:33:35;;;;;;;1.38;0.10;;;8.30;99.90;;;;;;5026479;28;20065;-74
2024/01/02 08:36:01;;;;;;;0.30;0.20;;;8.20;99.90;;;;;;5029223;28;20088;-75
2024/01/02 08:38:26;;;;;;;0.80;0.20;;;8.20;99.90;;;;;;5018275;28;20055;-74
2024/01/02 08:40:52;;;;;;;0.68;0.20;;;8.20;99.90;;;;;;5023785;28;20021;-74
2024/01/02 08:43:18;;;;;;;0.30;0.10;;;8.20;99.90;;;;;;5026562;28;20166;-74
2024/01/02 08:45:44;;;;;;;0.75;0.20;;;8.20;99.90;;;;;;5025515;28;20029;-73
2024/01/02 08:48:12;;;;;;;0.85;0.20;;;8.20;99.90;;;;;;5023647;28;20052;-73
2024/01/02 08:50:42;;;;;;;0.30;0.20;;;8.20;99.90;;;;;;5023934;28;20053;-74
2024/01/02 08:53:12;;;;;;;0.20;0.15;;;8.20;99.90;;;;;;5028718;28;20068;-73
2024/01/02 08:55:38;;;;;;;0.45;0.28;;;8.20;99.90;;;;;;5028491;28;20477;-74
2024/01/02 08:58:04;;;;;;;1.05;0.20;;;8.20;99.90;;;;;;5024461;28;20037;-73
2024/01/02 09:00:30;;;;;;;0.47;0.17;;;8.20;99.90;;;;;;5026230;28;20036;-74
2024/01/02 09:02:56;;;;;;;0.45;0.28;;;8.20;99.90;;;;;;5025521;28;20036;-74
2024/01/02 09:05:22;;;;;;;0.47;0.25;;;8.30;99.90;;;;;;5029577;28;20480;-73
2024/01/02 09:07:47;;;;;;;0.60;0.17;;;8.30;99.90;;;;;;5024390;28;20141;-74
2024/01/02 09:10:13;;;;;;;0.20;0.20;;;8.30;99.90;;;;;;5020689;28;20695;-74
2024/01/02 09:12:39;;;;;;;0.10;0.10;;;8.30;99.90;;;;;;5015590;28;20044;-73
2024/01/02 09:15:06;;;;;;;0.47;0.20;;;8.40;99.90;;;;;;5020213;28;20055;-76
2024/01/02 09:17:32;;;;;;;0.30;0.20;;;8.40;99.90;;;;;;5023979;28;20108;-74
2024/01/02 09:19:58;;;;;;;0.32;0.13;;;8.40;99.90;;;;;;5022842;28;20113;-75
2024/01/02 09:22:24;;;;;;;0.25;0.20;;;8.50;99.90;;;;;;5025892;28;20491;-74
2024/01/02 09:24:51;;;;;;;0.17;0.17;;;8.50;99.90;;;;;;5024131;28;20531;-74
2024/01/02 09:27:18;;;;;;;2.08;1.08;;;8.50;99.90;;;;;;5026148;28;20032;-75
2024/01/02 09:29:43;;;;;;;0.30;0.30;;;8.60;99.90;;;;;;5023556;28;20092;-74
2024/01/02 09:32:10;;;;;;;0.22;0.20;;;8.60;99.90;;;;;;5030272;28;20033;-74
2024/01/02 09:34:36;;;;;;;0.10;0.10;;;8.60;99.90;;;;;;5030733;28;20030;-75
2024/01/02 09:37:04;;;;;;;0.30;0.20;;;8.70;99.90;;;;;;5027405;28;20312;-75
2024/01/02 09:39:29;;;;;;;0.20;0.10;;;8.70;99.90;;;;;;5029591;28;20037;-75
2024/01/02 09:41:58;;;;;;;0.10;0.10;;;8.70;99.90;;;;;;5027275;28;20477;-76
2024/01/02 09:44:44;;;;;;;0.10;0.10;;;8.80;99.90;;;;;;5025742;28;20474;-75
2024/01/02 09:47:35;;;;;;;0.60;0.10;;;8.80;99.90;;;;;;5028701;28;20036;-76
2024/01/02 09:50:03;;;;;;;0.20;0.13;;;8.90;99.90;;;;;;5025249;28;20026;-75
2024/01/02 09:52:50;;;;;;;0.15;0.10;;;8.90;99.90;;;;;;5019260;28;20401;-75
2024/01/02 09:55:29;;;;;;;0.38;0.30;;;8.90;99.90;;;;;;5029167;28;20033;-75
2024/01/02 09:58:07;;;;;;;0.70;0.30;;;8.90;99.90;;;;;;5029416;28;20500;-75
2024/01/02 10:00:52;;;;;;;2.22;0.60;;;9.00;99.90;;;;;;5033268;28;20037;-75
2024/01/02 10:03:41;;;;;;;0.20;0.20;;;9.00;99.90;;;;;;5022289;28;20033;-75
2024/01/02 10:06:24;;;;;;;0.60;0.20;;;9.00;99.90;;;;;;5023760;28;20566;-74
2024/01/02 10:09:18;;;;;;;0.30;0.20;;;9.00;99.90;;;;;;5035557;28;20056;-75
2024/01/02 10:12:06;;;;;;;0.68;0.20;;;9.10;99.90;;;;;;5022405;28;20193;-75
2024/01/02 10:14:36;;;;;;;0.30;0.20;;;9.10;99.90;;;;;;5020192;28;20506;-73
2024/01/02 10:17:01;;;;;;;0.20;0.10;;;9.10;99.90;;;;;;5023094;28;20026;-74
2024/01/02 10:20:16;;;;;;;0.45;0.20;;;9.20;99.90;;;;;;5018349;28;20067;-74
2024/01/02 10:22:57;;;;;;;0.25;0.10;;;9.20;99.90;;;;;;5020066;28;20022;-75
2024/01/02 10:25:24;;;;;;;0.60;0.13;;;9.30;99.90;;;;;;5025690;28;20049;-75
2024/01/02 10:28:16;;;;;;;0.20;0.20;;;9.30;99.90;;;;;;5033631;28;20544;-75
2024/01/02 10:30:55;;;;;;;0.30;0.20;;;9.30;99.90;;;;;;5028235;28;20403;-75
2024/01/02 10:33:41;;;;;;;0.17;0.17;;;9.40;99.90;;;;;;5031110;28;20027;-75
2024/01/02 10:36:11;;;;;;;1.20;0.38;;;9.40;99.90;;;;;;5028533;28;20041;-75
2024/01/02 10:38:55;;;;;;;0.30;0.10;;;9.40;99.90;;;;;;5026130;28;20040;-75
2024/01/02 10:41:30;;;;;;;0.70;0.20;;;9.50;99.90;;;;;;5031066;28;20048;-76
2024/01/02 10:44:30;;;;;;;0.20;0.10;;;9.50;99.90;;;;;;5033697;28;20041;-75
2024/01/02 10:47:00;;;;;;;1.00;0.25;;;9.60;99.90;;;;;;5034711;28;20395;-75
2024/01/02 10:49:52;;;;;;;0.57;0.20;;;9.60;99.90;;;;;;5031034;28;20032;-74
2024/01/02 10:52:35;;;;;;;0.75;0.20;;;9.60;99.90;;;;;;5029989;28;20374;-75
2024/01/02 10:55:26;;;;;;;0.30;0.30;;;9.60;99.90;;;;;;5025093;28;20042;-72
2024/01/02 10:57:52;;;;;;;0.20;0.20;;;9.70;99.90;;;;;;5044601;28;20511;-75
2024/01/02 11:00:22;;;;;;;0.68;0.10;;;9.70;99.90;;;;;;5033502;28;20013;-75
2024/01/02 11:02:59;;;;;;;0.20;0.20;;;9.70;99.90;;;;;;5026304;28;20033;-75
2024/01/02 11:05:38;;;;;;;0.35;0.20;;;9.70;99.90;;;;;;5032064;28;20459;-74
2024/01/02 11:08:11;;;;;;;0.25;0.15;;;9.80;99.90;;;;;;5031315;28;20087;-74
2024/01/02 11:10:41;;;;;;;0.22;0.13;;;9.70;99.90;;;;;;5030658;28;20026;-74
2024/01/02 11:13:08;;;;;;;0.40;0.20;;;9.80;99.90;;;;;;5028297;28;20034;-73
2024/01/02 11:15:40;;;;;;;0.73;0.20;;;9.80;99.90;;;;;;5028562;28;20455;-75
2024/01/02 11:18:06;;;;;;;0.50;0.22;;;9.80;99.90;;;;;;5034463;28;20025;-74
2024/01/02 11:20:59;;;;;;;0.30;0.10;;;9.80;99.90;;;;;;5030276;28;20098;-72
2024/01/02 11:23:29;;;;;;;1.93;0.70;;;9.80;99.90;;;;;;5032475;28;20029;-75
2024/01/02 11:26:24;;;;;;;0.77;0.20;;;9.90;99.90;;;;;;5031147;28;20266;-74
2024/01/02 11:28:52;;;;;;;0.82;0.22;;;9.90;99.90;;;;;;5030070;28;20033;-74
2024/01/02 11:31:20;;;;;;;0.25;0.20;;;9.90;99.90;;;;;;5032410;28;20026;-74
2024/01/02 11:34:04;;;;;;;0.40;0.13;;;10.00;99.90;;;;;;5028801;28;20087;-74
2024/01/02 11:36:57;;;;;;;0.60;0.35;;;10.00;99.90;;;;;;5026824;28;20026;-72
2024/01/02 11:39:41;;;;;;;2.55;1.10;;;10.00;99.90;;;;;;5028039;28;20018;-74
2024/01/02 11:42:33;;;;;;;0.98;0.50;;;10.10;99.90;;;;;;5028678;28;20029;-74
2024/01/02 11:45:09;;;;;;;0.50;0.22;;;10.10;99.90;;;;;;5026720;28;20033;-75
2024/01/02 11:47:44;;;;;;;0.88;0.30;;;10.10;99.90;;;;;;5027981;28;20034;-74
2024/01/02 11:50:14;;;;;;;1.15;0.60;;;10.20;99.90;;;;;;5027693;28;20021;-71
2024/01/02 11:52:54;;;;;;;1.10;0.50;;;10.30;99.90;;;;;;5030182;28;20431;-72
2024/01/02 11:55:45;;;;;;;1.23;0.40;;;10.30;99.90;;;;;;5026965;28;20033;-74
2024/01/02 11:58:39;;;;;;;0.13;0.13;;;10.30;99.90;;;;;;5030716;28;20076;-74
2024/01/02 12:01:27;;;;;;;0.30;0.20;;;10.30;99.90;;;;;;5025441;28;20022;-73
2024/01/02 12:03:55;;;;;;;0.20;0.10;;;10.30;99.90;;;;;;5027306;28;20040;-75
2024/01/02 12:06:41;;;;;;;0.30;0.30;;;10.30;99.90;;;;;;5025061;28;20437;-74
2024/01/02 12:09:18;;;;;;;0.47;0.32;;;10.30;99.90;;;;;;5040726;28;20431;-74
2024/01/02 12:11:57;;;;;;;0.30;0.20;;;10.30;99.90;;;;;;5024812;28;20030;-74
2024/01/02 12:14:26;;;;;;;1.13;0.30;;;10.30;99.90;;;;;;5040899;28;20061;-74
2024/01/02 12:16:53;;;;;;;0.80;0.30;;;10.30;99.90;;;;;;5032136;28;20025;-74
2024/01/02 12:19:24;;;;;;;0.30;0.20;;;10.30;99.90;;;;;;5026875;28;20460;-72
2024/01/02 12:21:55;;;;;;;0.68;0.28;;;10.30;99.90;;;;;;5024646;28;20060;-73
2024/01/02 12:24:21;;;;;;;0.43;0.25;;;10.30;99.90;;;;;;5025683;28;20121;-74
2024/01/02 12:26:50;;;;;;;0.52;0.20;;;10.30;99.90;;;;;;5020755;28;20017;-74
2024/01/02 12:29:37;;;;;;;2.55;0.98;;;10.30;99.90;;;;;;5025134;28;20034;-73
2024/01/02 12:32:15;;;;;;;2.13;0.30;;;10.30;99.90;;;;;;5031271;28;20041;-74
2024/01/02 12:35:07;;;;;;;0.73;0.28;;;10.30;99.90;;;;;;5031405;28;20480;-74
2024/01/02 12:37:39;;;;;;;0.30;0.13;;;10.30;99.90;;;;;;5027338;28;20048;-74
2024/01/02 12:40:10;;;;;;;0.63;0.32;;;10.30;99.90;;;;;;5025042;28;20117;-74
2024/01/02 12:42:45;;;;;;;0.93;0.45;;;10.30;99.90;;;;;;5028074;28;20029;-74
2024/01/02 12:45:17;;;;;;;3.00;0.70;;;10.30;99.90;;;;;;5030179;28;20083;-74
2024/01/02 12:47:46;;;;;;;1.17;0.22;;;10.40;99.90;;;;;;5030018;28;20021;-74
2024/01/02 12:50:13;;;;;;;0.38;0.20;;;10.40;99.90;;;;;;5024268;28;20117;-74
2024/01/02 12:53:00;;;;;;;1.25;0.20;;;10.50;99.90;;;;;;5019018;28;20029;-74
2024/01/02 12:55:28;;;;;;;0.43;0.20;;;10.50;99.90;;;;;;5019195;28;20025;-74
2024/01/02 12:57:54;;;;;;;0.35;0.20;;;10.50;99.90;;;;;;5024209;28;20037;-74
2024/01/02 13:00:20;;;;;;;0.93;0.30;;;10.60;99.90;;;;;;5028240;28;20025;-75
2024/01/02 13:02:46;;;;;;;0.82;0.22;;;10.50;99.90;;;;;;5022472;28;20128;-74